Flight Track Log - Related Links

Times and Time Zones

All times are in EDT time to prevent confusion due to time zone crossing. See the PDT4269 flight status page for this flight to view local times or setup timezone preferences in your user account.

Time Position Orientation Groundspeed Altitude Reporting Facility
EDT Latitude Longitude Course Direction KTS MPH feet Rate Location/Type
Tue 07:31:00 AM 34.7920 -78.1354 265° West  Level FlightAware
Tue 07:32:00 AM 34.8224 -77.6867 264° West  Level FlightAware
Tue 07:33:00 AM 34.8167 -77.7501 261° West  Level FlightAware
Tue 07:34:00 AM 34.8074 -77.8242 261° West  Level FlightAware
Tue 07:35:00 AM 34.8000 -77.8986 270° West  Level FlightAware
Tue 07:36:00 AM 34.8000 -77.9736 270° West  Level FlightAware
Tue 07:37:00 AM 34.7988 -78.0486 265° West  Level FlightAware
Tue 07:38:00 AM 34.7929 -78.1232 265° West  Level FlightAware
Tue 07:39:00 AM 34.7870 -78.1979 265° West  Level FlightAware
Tue 07:40:00 AM 34.7810 -78.2725 264° West  Level FlightAware
Tue 07:41:00 AM 34.7750 -78.3472 264° West  Level FlightAware
Tue 07:42:00 AM 34.7690 -78.4218 264° West  Level FlightAware
Tue 07:43:00 AM 34.7642 -78.4966 266° West  Level FlightAware
Tue 07:44:00 AM 34.7602 -78.5714 266° West  Level FlightAware
Tue 07:45:00 AM 34.7561 -78.6462 266° West  Level FlightAware
Tue 07:46:00 AM 34.7520 -78.7210 266° West  Level FlightAware
Tue 07:47:00 AM 34.7479 -78.7958 266° West  Level FlightAware
Tue 07:48:00 AM 34.7437 -78.8706 266° West  Level FlightAware
Tue 07:49:00 AM 34.7394 -78.9454 266° West  Level FlightAware
Tue 07:50:00 AM 34.7351 -79.0202 266° West  Level FlightAware
Tue 07:51:00 AM 34.7308 -79.0950 266° West  Level FlightAware
Tue 07:52:00 AM 34.7264 -79.1697 266° West  Level FlightAware
Tue 07:53:00 AM 34.7220 -79.2445 266° West  Level FlightAware
Tue 07:54:00 AM 34.7175 -79.3192 266° West  Level FlightAware
Tue 07:55:00 AM 34.7113 -79.3938 264° West  Level FlightAware
Tue 07:56:00 AM 34.7045 -79.4683 264° West  Level FlightAware
Tue 07:57:00 AM 34.6978 -79.5427 264° West  Level FlightAware
Tue 07:58:00 AM 34.6910 -79.6172 264° West  Level FlightAware
Tue 07:59:00 AM 34.6841 -79.6917 264° West  Level FlightAware
Tue 08:00:00 AM 34.6785 -79.7663 265° West  Level FlightAware
Tue 08:00:07 AM 34.6683 -80.0433 265° West 231 266 10,000  Level Atlanta Center
Tue 08:01:00 AM 34.6731 -79.8409 265° West  Level FlightAware
Tue 08:01:02 AM 34.6664 -80.1142 268° West 228 262 10,000  Level Atlanta Center
Tue 08:02:00 AM 34.6676 -79.9155 265° West  Level FlightAware
Tue 08:02:03 AM 34.6586 -80.1928 263° West 230 265 10,000  Level Atlanta Center
Tue 08:03:00 AM 34.6620 -79.9901 265° West  Level FlightAware
Tue 08:03:04 AM 34.6550 -80.2764 267° West 230 265 9,900  Level Atlanta Center
Tue 08:03:59 AM 34.6919 -80.3328 309° West 241 277 10,000 52 Climbing Atlanta Center
Tue 08:04:00 AM 34.6564 -80.0646 265° West  Level FlightAware
Tue 08:05:00 AM 34.6508 -80.1392 265° West  Level FlightAware
Tue 08:05:00 AM 34.7417 -80.3861 319° Northwest 240 276 10,000  Level Atlanta Center
Tue 08:06:01 AM 34.7872 -80.4425 315° West 239 275 10,000  Level Atlanta Center
Tue 08:07:03 AM 34.8328 -80.5011 313° West 237 273 10,000 -49 Level Atlanta Center
Tue 08:08:04 AM 34.8744 -80.5703 306° West 235 270 9,900 -295 Descending Atlanta Center
Tue 08:09:05 AM 34.9258 -80.6214 321° Northwest 243 280 9,400 -422 Descending Atlanta Center
Tue 08:10:12 AM 34.9839 -80.6847 318° Northwest 256 295 9,000 -188 Descending Atlanta Center
Tue 08:11:13 AM 35.0336 -80.7461 315° West 240 276 9,000  Level Atlanta Center
Tue 08:12:14 AM 35.0808 -80.8003 317° Northwest 238 274 9,000  Level Atlanta Center
Tue 08:13:16 AM 35.1478 -80.8028 358° North 251 289 9,000 -492 Level Atlanta Center
Tue 08:14:16 AM 35.2203 -80.7872 10° North 259 298 8,000 -983 Descending Atlanta Center
Tue 08:15:12 AM 35.2625 -80.7219 52° Northeast 263 303 7,100 -1,026 Descending Atlanta Center
Tue 08:16:13 AM 35.3161 -80.7019 17° North 212 244 6,000 -1,033 Descending Atlanta Center
Tue 08:17:14 AM 35.3344 -80.7597 291° West 175 201 5,000 -1,279 Descending Atlanta Center
Tue 08:18:15 AM 35.3067 -80.8142 238° Southwest 188 216 3,400 -1,377 Descending Atlanta Center
Tue 08:19:16 AM 35.2725 -80.8639 230° Southwest 188 216 2,200 -984 Descending Atlanta Center
Tue 08:20:23 AM 35.2403 -80.9083 228° Southwest 145 167 1,300 -806 Descending Atlanta Center
Tue 08:22:00 AM 35.2000 -80.9333 296° West  Level FlightAware
Tue 08:29:00 AM 35.2137 -80.9491 296° West  Level Estimated

Login

Don't have an account? Register now (free) for customized features, flight alerts, and more!